Time;durP1;ratioP1;P1;durP2;ratioP2;P2;SDS_P1;SDS_P2;PMS_P1;PMS_P2;Temp;Humidity;BMP_temperature;BMP_pressure;BME280_temperature;BME280_humidity;BME280_pressure;Samples;Min_cycle;Max_cycle;Signal;HPM_P1;HPM_P2
2022/06/14 00:01:34;;;;;;;7.78;2.20;;;;;;;9.73;100.00;99045.22;5062948;28;20128;-91
2022/06/14 00:04:00;;;;;;;12.23;2.47;;;;;;;9.75;100.00;99046.06;5060841;28;20025;-92
2022/06/14 00:06:30;;;;;;;9.07;2.17;;;;;;;9.66;100.00;99044.34;5059038;28;20054;-91
2022/06/14 00:08:55;;;;;;;11.38;2.45;;;;;;;9.65;100.00;99036.53;5051744;28;20032;-92
2022/06/14 00:11:40;;;;;;;9.32;2.42;;;;;;;9.57;100.00;99031.34;5048367;28;20097;-89
2022/06/14 00:14:09;;;;;;;8.52;2.30;;;;;;;9.50;100.00;99043.47;5050463;28;20029;-89
2022/06/14 00:16:36;;;;;;;11.18;2.28;;;;;;;9.50;100.00;99034.81;5050034;28;20040;-90
2022/06/14 00:19:04;;;;;;;14.40;2.60;;;;;;;9.43;100.00;99027.88;5065482;28;20504;-91
2022/06/14 00:21:30;;;;;;;12.10;2.97;;;;;;;9.38;100.00;99025.25;5089582;28;20024;-90
2022/06/14 00:23:56;;;;;;;10.32;2.63;;;;;;;9.35;100.00;99023.53;5088121;28;20036;-91
2022/06/14 00:26:22;;;;;;;9.05;2.33;;;;;;;9.39;100.00;99029.59;5053579;28;20028;-90
2022/06/14 00:28:47;;;;;;;8.77;2.50;;;;;;;9.35;100.00;99028.75;5061385;28;20130;-91
2022/06/14 00:31:19;;;;;;;7.95;2.00;;;;;;;9.38;100.00;99031.34;5071841;28;20067;-91
2022/06/14 00:33:45;;;;;;;9.70;2.03;;;;;;;9.34;100.00;99031.34;5066984;28;20025;-91
2022/06/14 00:36:34;;;;;;;8.02;2.00;;;;;;;9.34;100.00;99031.34;5053416;28;20033;-90
2022/06/14 00:39:06;;;;;;;9.85;2.00;;;;;;;9.38;100.00;99031.34;5063250;28;20033;-90
2022/06/14 00:41:40;;;;;;;7.43;1.77;;;;;;;9.37;100.00;99032.19;5052251;28;20032;-90
2022/06/14 00:44:13;;;;;;;7.68;1.95;;;;;;;9.35;100.00;99026.16;5051308;28;20304;-90
2022/06/14 00:46:45;;;;;;;9.57;2.17;;;;;;;9.35;100.00;99026.16;5050768;28;20068;-91
2022/06/14 00:49:26;;;;;;;6.90;1.75;;;;;;;9.29;100.00;99023.53;5047398;28;20094;-90
2022/06/14 00:52:02;;;;;;;9.40;2.17;;;;;;;9.30;100.00;99021.81;5051604;28;20079;-90
2022/06/14 00:54:34;;;;;;;7.45;1.70;;;;;;;9.30;100.00;99020.06;5049670;28;20154;-91
2022/06/14 00:57:12;;;;;;;8.48;1.85;;;;;;;9.33;100.00;99022.66;5067393;28;20029;-91
2022/06/14 00:59:48;;;;;;;6.63;1.80;;;;;;;9.36;100.00;99021.78;5048128;28;20028;-90
2022/06/14 01:02:18;;;;;;;10.55;1.90;;;;;;;9.38;100.00;99007.91;5050465;28;20059;-91
2022/06/14 01:04:46;;;;;;;10.18;1.80;;;;;;;9.38;100.00;99007.03;5047966;28;20024;-91
2022/06/14 01:07:36;;;;;;;10.43;1.85;;;;;;;9.37;100.00;99005.31;5048305;28;20056;-90
2022/06/14 01:10:06;;;;;;;8.98;1.70;;;;;;;9.37;100.00;99011.38;5062959;28;20115;-90
2022/06/14 01:12:36;;;;;;;8.52;1.75;;;;;;;9.40;100.00;99006.16;5049568;28;20033;-90
2022/06/14 01:15:08;;;;;;;8.32;1.67;;;;;;;9.42;100.00;99002.69;5053502;28;20035;-90
2022/06/14 01:17:41;;;;;;;7.72;1.42;;;;;;;9.41;100.00;99001.84;5066891;28;20165;-90
2022/06/14 01:20:09;;;;;;;7.70;1.80;;;;;;;9.36;100.00;98998.38;5052809;28;20481;-91
2022/06/14 01:22:35;;;;;;;8.25;1.60;;;;;;;9.36;100.00;98993.16;5053207;28;20029;-89
2022/06/14 01:25:02;;;;;;;8.20;1.73;;;;;;;9.38;100.00;98987.09;5054628;28;20761;-89
2022/06/14 01:27:30;;;;;;;8.57;2.20;;;;;;;9.39;100.00;98982.75;5050327;28;20150;-89
2022/06/14 01:30:14;;;;;;;8.32;1.80;;;;;;;9.42;100.00;98992.28;5051112;28;20491;-90
2022/06/14 01:32:42;;;;;;;;;;;;;;;9.44;100.00;98991.44;5052211;28;20036;-91
2022/06/14 01:35:13;;;;;;;6.40;1.60;;;;;;;9.41;100.00;98991.44;5060128;28;20440;-90
2022/06/14 01:37:39;;;;;;;10.27;1.92;;;;;;;9.42;100.00;98979.28;5058496;28;20021;-91
2022/06/14 01:40:06;;;;;;;9.75;1.83;;;;;;;9.39;100.00;98983.63;5061698;28;20039;-89
2022/06/14 01:42:43;;;;;;;9.55;1.63;;;;;;;9.44;100.00;98987.97;5071524;28;20049;-90
2022/06/14 01:45:27;;;;;;;10.45;1.80;;;;;;;9.40;100.00;98987.94;5075418;28;20012;-91
2022/06/14 01:48:15;;;;;;;;;;;;;;;9.41;100.00;98991.44;5069412;28;20028;-90
2022/06/14 01:53:42;;;;;;;8.00;1.70;;;;;;;9.37;100.00;98981.88;5046502;28;20055;-89
2022/06/14 01:56:08;;;;;;;7.93;1.67;;;;;;;9.39;100.00;98993.16;5039781;28;20041;-89
2022/06/14 01:59:02;;;;;;;10.27;1.60;;;;;;;9.33;100.00;98988.81;5046563;28;20119;-90
2022/06/14 02:01:38;;;;;;;;;;;;;;;9.35;100.00;98987.09;5042505;28;20037;-90
2022/06/14 02:04:39;;;;;;;7.18;1.63;;;;;;;9.35;100.00;98987.09;5048036;28;19908;-90
2022/06/14 02:07:05;;;;;;;7.55;1.58;;;;;;;9.38;100.00;98986.19;5050313;28;20060;-88
2022/06/14 02:09:59;;;;;;;9.70;1.58;;;;;;;9.36;100.00;98985.34;5047932;28;20472;-90
2022/06/14 02:12:48;;;;;;;10.52;1.80;;;;;;;9.39;100.00;98986.22;5042305;28;20041;-90
2022/06/14 02:15:34;;;;;;;8.00;1.77;;;;;;;9.35;100.00;98992.31;5054522;28;20048;-91
2022/06/14 02:18:22;;;;;;;7.43;1.75;;;;;;;9.37;100.00;98989.69;5053697;28;20026;-90
2022/06/14 02:21:02;;;;;;;7.22;2.03;;;;;;;9.35;100.00;98987.09;5058368;28;20040;-90
2022/06/14 02:23:33;;;;;;;7.32;1.60;;;;;;;9.30;100.00;98975.81;5057200;28;20039;-91
2022/06/14 02:26:05;;;;;;;8.27;1.70;;;;;;;9.35;100.00;98981.00;5059318;28;20044;-91
2022/06/14 02:28:34;;;;;;;7.80;1.63;;;;;;;9.33;100.00;98975.81;5056968;28;20026;-92
2022/06/14 02:31:08;;;;;;;7.68;1.42;;;;;;;9.31;100.00;98979.28;5066479;28;20072;-91
2022/06/14 02:33:42;;;;;;;7.40;1.60;;;;;;;9.41;100.00;98981.03;5058185;28;20043;-88
2022/06/14 02:36:17;;;;;;;9.63;1.77;;;;;;;9.29;100.00;98981.03;5038803;28;20054;-92
2022/06/14 02:39:10;;;;;;;8.70;2.05;;;;;;;9.29;100.00;98976.69;5034849;28;20029;-92
2022/06/14 02:42:05;;;;;;;10.63;1.95;;;;;;;9.21;100.00;98976.69;5043389;28;20029;-92
2022/06/14 02:44:39;;;;;;;8.18;1.92;;;;;;;9.23;100.00;98977.53;5037445;28;20037;-93
2022/06/14 02:47:24;;;;;;;10.82;2.47;;;;;;;9.27;100.00;98973.22;5029925;28;20102;-92
2022/06/14 02:50:15;;;;;;;8.82;1.67;;;;;;;9.22;100.00;98970.59;5042945;28;20039;-93
2022/06/14 02:52:49;;;;;;;10.38;2.03;;;;;;;9.23;100.00;98967.13;5051172;28;20036;-93
2022/06/14 02:55:31;;;;;;;8.60;1.92;;;;;;;9.40;100.00;98968.88;5071322;28;20048;-93
2022/06/14 02:58:03;;;;;;;8.10;1.52;;;;;;;9.21;100.00;98971.50;5054641;28;20028;-92
2022/06/14 03:00:41;;;;;;;7.70;1.60;;;;;;;9.22;100.00;98960.19;5058973;28;20033;-92
2022/06/14 03:03:13;;;;;;;9.55;1.90;;;;;;;9.23;100.00;98956.72;5053071;28;20064;-93
2022/06/14 03:05:48;;;;;;;7.10;1.65;;;;;;;9.27;100.00;98964.53;5048834;28;20116;-95
2022/06/14 03:08:21;;;;;;;7.95;1.67;;;;;;;9.27;100.00;98956.72;5057962;28;20499;-93
2022/06/14 03:10:50;;;;;;;;;;;;;;;9.25;100.00;98954.13;5050451;28;20040;-93
2022/06/14 03:13:51;;;;;;;8.88;1.67;;;;;;;9.16;100.00;98957.59;5054620;28;20311;-92
2022/06/14 03:16:41;;;;;;;14.95;2.03;;;;;;;9.28;100.00;98956.72;5044172;28;20117;-92
2022/06/14 03:19:12;;;;;;;9.10;1.67;;;;;;;9.21;100.00;98957.59;5056878;28;20041;-92
2022/06/14 03:21:52;;;;;;;5.47;1.38;;;;;;;9.20;100.00;98941.13;5053783;28;20405;-93
2022/06/14 03:24:52;;;;;;;7.07;1.63;;;;;;;9.25;100.00;98948.91;5054869;28;20149;-93
2022/06/14 03:27:28;;;;;;;10.38;1.88;;;;;;;9.23;100.00;98956.72;5066894;28;20057;-93
2022/06/14 03:30:01;;;;;;;10.05;1.65;;;;;;;9.13;100.00;98955.00;5052743;28;20032;-93
2022/06/14 03:32:45;;;;;;;11.40;1.80;;;;;;;9.25;100.00;98953.25;5051411;28;20039;-91
2022/06/14 03:38:49;;;;;;;10.52;1.92;;;;;;;9.19;100.00;98949.78;5052385;28;20848;-93
2022/06/14 03:41:19;;;;;;;8.52;1.77;;;;;;;9.21;100.00;98944.56;5054540;28;20029;-93
2022/06/14 03:43:46;;;;;;;8.45;1.95;;;;;;;9.29;100.00;98949.78;5058207;28;20037;-92
2022/06/14 03:46:20;;;;;;;8.88;1.75;;;;;;;9.30;100.00;98954.13;5055679;28;20053;-92
2022/06/14 03:48:52;;;;;;;7.95;1.80;;;;;;;9.26;100.00;98957.59;5050871;28;20412;-92
2022/06/14 03:51:44;;;;;;;8.98;2.00;;;;;;;9.17;100.00;98959.34;5054005;28;20039;-92
2022/06/14 03:54:26;;;;;;;9.43;2.00;;;;;;;9.19;100.00;98955.00;5059727;28;20094;-93
2022/06/14 03:57:11;;;;;;;7.53;1.92;;;;;;;9.22;100.00;98949.78;5075761;28;20029;-93
2022/06/14 03:59:44;;;;;;;11.48;2.30;;;;;;;9.25;100.00;98945.47;5052201;28;20024;-93
2022/06/14 04:02:22;;;;;;;7.63;1.90;;;;;;;9.29;100.00;98947.19;5052441;28;20041;-92
2022/06/14 04:04:55;;;;;;;8.98;1.80;;;;;;;9.30;100.00;98948.94;5058663;28;20095;-92
2022/06/14 04:07:49;;;;;;;12.32;2.28;;;;;;;9.33;100.00;98941.13;5055532;28;20032;-92
2022/06/14 04:10:46;;;;;;;11.13;1.65;;;;;;;9.37;100.00;98935.91;5055133;28;20071;-93
2022/06/14 04:13:32;;;;;;;8.73;1.83;;;;;;;9.36;100.00;98946.31;5055326;28;20524;-94
2022/06/14 04:16:16;;;;;;;8.63;1.95;;;;;;;9.32;100.00;98948.03;5052633;28;20099;-93
2022/06/14 04:18:47;;;;;;;8.60;1.88;;;;;;;9.34;100.00;98942.84;5053737;28;20036;-91
2022/06/14 04:21:45;;;;;;;10.80;2.05;;;;;;;9.42;100.00;98940.22;5055798;28;20052;-93
2022/06/14 04:24:17;;;;;;;10.77;2.47;;;;;;;9.40;100.00;98940.22;5020534;28;20024;-93
2022/06/14 04:26:53;;;;;;;8.32;1.73;;;;;;;9.44;100.00;98944.56;5055022;28;20083;-92
2022/06/14 04:29:30;;;;;;;9.32;1.95;;;;;;;9.43;100.00;98940.22;5054175;28;20069;-91
2022/06/14 04:32:33;;;;;;;8.55;1.73;;;;;;;9.49;100.00;98939.34;5053451;28;20037;-93
2022/06/14 04:35:38;;;;;;;10.68;2.10;;;;;;;9.55;100.00;98937.59;5053610;28;20115;-93
2022/06/14 04:38:08;;;;;;;9.88;2.10;;;;;;;9.61;100.00;98928.06;5004331;28;20029;-93
2022/06/14 04:40:44;;;;;;;9.30;1.80;;;;;;;9.56;100.00;98930.66;5000566;28;20069;-93
2022/06/14 04:43:16;;;;;;;10.10;1.80;;;;;;;9.60;100.00;98928.91;5032274;28;20139;-93
2022/06/14 04:46:05;;;;;;;10.77;1.80;;;;;;;9.61;100.00;98926.31;5014207;28;20033;-92
2022/06/14 04:48:46;;;;;;;9.88;2.00;;;;;;;9.66;100.00;98927.16;5005050;28;20179;-92
2022/06/14 04:51:15;;;;;;;8.57;2.10;;;;;;;9.74;100.00;98928.00;5013076;28;20048;-92
2022/06/14 04:53:52;;;;;;;10.23;1.98;;;;;;;9.78;100.00;98921.03;5019159;28;20044;-93
2022/06/14 04:56:29;;;;;;;10.77;1.88;;;;;;;9.86;100.00;98915.81;5016329;28;20112;-92
2022/06/14 04:59:41;;;;;;;12.25;2.20;;;;;;;9.94;100.00;98913.16;5015368;28;20045;-94
2022/06/14 05:02:19;;;;;;;8.40;1.92;;;;;;;10.04;100.00;98914.88;4990345;28;20119;-93
2022/06/14 05:04:51;;;;;;;10.57;2.05;;;;;;;10.09;100.00;98915.75;5024101;28;20059;-93
2022/06/14 05:07:22;;;;;;;11.63;2.30;;;;;;;10.15;100.00;98915.69;5033721;28;20076;-93
2022/06/14 05:09:59;;;;;;;12.45;1.85;;;;;;;10.19;100.00;98911.34;5020598;28;20140;-93
2022/06/14 05:12:26;;;;;;;10.15;1.75;;;;;;;10.27;100.00;98916.50;5040021;28;20037;-92
2022/06/14 05:15:10;;;;;;;7.88;1.70;;;;;;;10.25;100.00;98919.97;5055681;28;20024;-93
2022/06/14 05:18:00;;;;;;;12.50;2.00;;;;;;;10.31;100.00;98915.63;5070827;28;20059;-93
2022/06/14 05:20:48;;;;;;;9.15;1.90;;;;;;;10.27;100.00;98908.69;5056783;28;20053;-93
2022/06/14 05:23:21;;;;;;;7.20;1.65;;;;;;;10.29;100.00;98912.16;5055456;28;20035;-93
2022/06/14 05:25:51;;;;;;;;;;;;;;;10.36;100.00;98921.72;5051544;28;20036;-93
2022/06/14 05:28:50;;;;;;;9.20;1.70;;;;;;;10.45;100.00;98926.84;5054808;28;19916;-93
2022/06/14 05:32:04;;;;;;;7.25;1.65;;;;;;;10.52;100.00;98918.13;5048483;28;20064;-94
2022/06/14 05:34:54;;;;;;;7.70;1.75;;;;;;;10.62;100.00;98924.16;5053259;28;20037;-93
2022/06/14 05:37:42;;;;;;;7.85;1.65;;;;;;;10.66;100.00;98922.38;5057299;28;20036;-93
2022/06/14 05:40:23;;;;;;;11.80;1.95;;;;;;;10.64;100.00;98921.53;5055849;28;20045;-93
2022/06/14 05:43:14;;;;;;;8.13;1.50;;;;;;;10.59;100.00;98912.00;5051684;28;20075;-94
2022/06/14 05:45:54;;;;;;;8.77;2.00;;;;;;;10.70;100.00;98929.31;5066882;28;20033;-92
2022/06/14 05:48:28;;;;;;;7.38;1.90;;;;;;;10.61;100.00;98925.03;5068481;28;20028;-93
2022/06/14 05:50:56;;;;;;;7.70;1.95;;;;;;;10.76;100.00;98929.28;5073576;28;20048;-92
2022/06/14 05:53:55;;;;;;;10.15;1.80;;;;;;;10.84;100.00;98940.53;5068493;28;20032;-93
2022/06/14 05:56:21;;;;;;;10.68;1.73;;;;;;;10.88;100.00;98929.19;5051822;28;20120;-93
2022/06/14 05:59:07;;;;;;;9.98;1.90;;;;;;;10.95;100.00;98913.47;5050183;28;20052;-94
2022/06/14 06:01:46;;;;;;;7.05;1.67;;;;;;;11.02;100.00;98917.75;5093261;28;20005;-92
2022/06/14 06:04:16;;;;;;;7.30;1.77;;;;;;;11.05;100.00;98918.63;5073384;28;20021;-94
2022/06/14 06:06:45;;;;;;;10.27;1.77;;;;;;;11.13;100.00;98915.94;5072253;28;20032;-93
2022/06/14 06:09:26;;;;;;;6.47;1.85;;;;;;;11.20;100.00;98917.63;5061611;28;20025;-91
2022/06/14 06:12:07;;;;;;;7.38;1.80;;;;;;;10.97;100.00;98916.94;5059201;28;20127;-94
2022/06/14 06:14:36;;;;;;;5.93;1.90;;;;;;;11.05;100.00;98925.56;5056044;28;20032;-93
2022/06/14 06:17:09;;;;;;;11.35;1.80;;;;;;;11.13;100.00;98923.75;5053775;28;20039;-95
2022/06/14 06:19:59;;;;;;;9.63;1.92;;;;;;;11.32;100.00;98921.84;5057422;28;20032;-93
2022/06/14 06:22:47;;;;;;;9.93;1.70;;;;;;;11.33;100.00;98922.72;5052832;28;20039;-93
2022/06/14 06:25:21;;;;;;;7.13;1.60;;;;;;;11.41;100.00;98923.50;5053994;28;20515;-93
2022/06/14 06:28:12;;;;;;;7.68;1.67;;;;;;;11.44;100.00;98929.56;5051531;28;20033;-94
2022/06/14 06:31:31;;;;;;;6.70;1.65;;;;;;;11.57;100.00;98919.84;5051835;28;20027;-94
2022/06/14 06:33:59;;;;;;;9.32;1.83;;;;;;;11.52;100.00;98919.03;5039370;28;20037;-93
2022/06/14 06:36:56;;;;;;;8.15;1.80;;;;;;;11.59;100.00;98919.84;5050974;28;20076;-94
2022/06/14 06:39:55;;;;;;;6.72;1.90;;;;;;;11.87;100.00;98924.75;5048168;28;20032;-94
2022/06/14 06:42:44;;;;;;;8.95;2.03;;;;;;;11.99;100.00;98926.41;5046193;28;20079;-94
2022/06/14 06:45:30;;;;;;;9.70;2.10;;;;;;;11.93;100.00;98928.16;5052168;28;20090;-92
2022/06/14 06:48:05;;;;;;;10.07;1.75;;;;;;;12.11;100.00;98928.88;5048345;28;20112;-94
2022/06/14 06:50:36;;;;;;;8.88;1.70;;;;;;;12.35;100.00;98924.22;5054046;28;20048;-92
2022/06/14 06:53:11;;;;;;;7.63;2.00;;;;;;;12.36;100.00;98929.41;5059403;28;20035;-93
2022/06/14 06:55:46;;;;;;;10.68;1.92;;;;;;;12.32;100.00;98926.84;5052431;28;20136;-92
2022/06/14 06:58:24;;;;;;;7.90;1.52;;;;;;;12.48;100.00;98923.13;5049957;28;20035;-93
2022/06/14 07:00:53;;;;;;;8.13;1.50;;;;;;;12.42;100.00;98923.22;5050006;28;20025;-92
2022/06/14 07:03:55;;;;;;;11.80;1.90;;;;;;;12.28;100.00;98916.44;5054543;28;20092;-93
2022/06/14 07:07:20;;;;;;;;;;;;;;;;;;;;;
2022/06/14 07:10:23;;;;;;;9.23;1.50;;;;;;;12.57;100.00;98916.94;5047733;28;20029;-95
2022/06/14 07:13:09;;;;;;;6.85;1.70;;;;;;;12.79;100.00;98917.47;5052659;28;20092;-95
2022/06/14 07:15:59;;;;;;;9.35;2.05;;;;;;;12.83;100.00;98919.13;5030588;28;20061;-95
2022/06/14 07:18:46;;;;;;;9.10;1.88;;;;;;;12.88;100.00;98912.06;5043092;28;20033;-96
2022/06/14 07:27:15;;;;;;;9.35;1.55;;;;;;;13.22;100.00;98910.66;5055657;28;20032;-91
2022/06/14 07:29:50;;;;;;;7.45;1.73;;;;;;;13.08;100.00;98922.25;5055547;28;20051;-90
2022/06/14 07:32:44;;;;;;;8.80;1.52;;;;;;;13.27;100.00;98908.81;5032678;28;20088;-95
2022/06/14 07:35:13;;;;;;;7.95;1.50;;;;;;;13.30;100.00;98912.25;5034861;28;20021;-95
2022/06/14 07:37:48;;;;;;;8.18;1.70;;;;;;;13.48;100.00;98915.47;5048755;28;20028;-95
2022/06/14 07:40:27;;;;;;;8.35;1.70;;;;;;;13.54;100.00;98909.25;5044827;28;20123;-93
2022/06/14 07:43:17;;;;;;;8.15;1.90;;;;;;;13.71;100.00;98908.91;5052547;28;20029;-92
2022/06/14 07:45:48;;;;;;;9.82;1.70;;;;;;;13.80;100.00;98912.22;5048433;28;20033;-92
2022/06/14 07:48:57;;;;;;;7.53;1.70;;;;;;;13.86;100.00;98903.38;5031407;28;20151;-93
2022/06/14 07:51:40;;;;;;;8.65;1.67;;;;;;;13.88;100.00;98906.84;4950530;28;20031;-93
2022/06/14 07:54:21;;;;;;;8.52;1.70;;;;;;;13.69;100.00;98903.69;4949769;28;20054;-93
2022/06/14 07:56:55;;;;;;;8.27;1.67;;;;;;;13.52;100.00;98898.78;4935969;29;20046;-91
2022/06/14 07:59:32;;;;;;;6.90;1.60;;;;;;;13.82;100.00;98899.97;4935517;29;20078;-94
2022/06/14 08:02:38;;;;;;;7.88;1.80;;;;;;;13.85;100.00;98898.16;4914124;29;20860;-92
2022/06/14 08:05:15;;;;;;;8.18;1.63;;;;;;;14.07;100.00;98893.34;4934796;29;20083;-91
2022/06/14 08:07:43;;;;;;;9.25;1.90;;;;;;;13.91;100.00;98888.41;4946329;28;20471;-92
2022/06/14 08:10:22;;;;;;;6.55;1.50;;;;;;;13.93;100.00;98894.50;4947181;28;20038;-91
2022/06/14 08:15:47;;;;;;;9.93;1.85;;;;;;;13.53;100.00;98892.66;4948159;28;20093;-92
2022/06/14 08:18:36;;;;;;;7.03;1.75;;;;;;;13.54;100.00;98891.78;4942940;28;20520;-93
2022/06/14 08:21:19;;;;;;;10.18;1.88;;;;;;;13.31;100.00;98893.00;4947379;28;20038;-93
2022/06/14 08:23:59;;;;;;;7.65;1.80;;;;;;;13.41;100.00;98890.28;4946533;28;20054;-93
2022/06/14 08:26:47;;;;;;;7.13;1.70;;;;;;;13.45;100.00;98889.31;5025098;28;20071;-93
2022/06/14 08:29:39;;;;;;;11.38;1.95;;;;;;;13.50;100.00;98879.63;5043112;28;20029;-92
2022/06/14 08:32:19;;;;;;;8.23;1.88;;;;;;;13.58;100.00;98879.47;5035903;28;20053;-93
2022/06/14 08:34:51;;;;;;;7.47;1.50;;;;;;;13.12;100.00;98874.16;5028642;28;20093;-92
2022/06/14 08:37:45;;;;;;;6.87;1.80;;;;;;;13.42;100.00;98874.53;5025935;28;20764;-93
2022/06/14 08:40:19;;;;;;;5.80;1.35;;;;;;;13.10;100.00;98872.47;4975620;28;20045;-93
2022/06/14 08:43:01;;;;;;;6.47;1.45;;;;;;;13.38;100.00;98865.00;4985331;28;20082;-92
2022/06/14 08:45:54;;;;;;;5.80;1.52;;;;;;;13.40;100.00;98865.84;4975825;28;20038;-92
2022/06/14 08:49:29;;;;;;;7.00;1.80;;;;;;;13.31;100.00;98872.06;4988477;28;20121;-92
2022/06/14 08:52:17;;;;;;;;;;;;;;;13.06;100.00;98868.16;4968820;28;20831;-92
2022/06/14 08:55:21;;;;;;;5.63;1.40;;;;;;;13.28;100.00;98871.28;5006495;28;19928;-91
2022/06/14 08:58:17;;;;;;;6.68;1.40;;;;;;;13.62;100.00;98868.03;5006820;28;20046;-92
2022/06/14 09:01:30;;;;;;;6.65;1.80;;;;;;;13.53;100.00;98868.19;5008414;28;21078;-92
2022/06/14 09:04:34;;;;;;;6.05;1.52;;;;;;;13.53;100.00;98869.09;5010846;28;20041;-92
2022/06/14 09:07:18;;;;;;;6.65;1.60;;;;;;;13.75;100.00;98863.41;5012904;28;20139;-92
2022/06/14 09:10:02;;;;;;;4.57;1.38;;;;;;;13.85;100.00;98862.34;5010822;28;20128;-92
2022/06/14 09:13:05;;;;;;;6.53;1.67;;;;;;;13.56;100.00;98852.44;5029244;28;20025;-92
2022/06/14 09:15:43;;;;;;;7.25;1.63;;;;;;;13.65;100.00;98855.75;5025159;28;20026;-92
2022/06/14 09:18:30;;;;;;;6.72;1.60;;;;;;;13.42;100.00;98848.31;5061902;28;20045;-92
2022/06/14 09:20:55;;;;;;;5.82;1.48;;;;;;;13.47;100.00;98848.22;5069956;28;20036;-92
2022/06/14 09:23:46;;;;;;;6.05;1.70;;;;;;;13.73;100.00;98845.09;5059124;28;20028;-91
2022/06/14 09:26:54;;;;;;;8.27;1.67;;;;;;;14.02;100.00;98841.00;5052525;28;20024;-92
2022/06/14 09:29:29;;;;;;;8.35;1.70;;;;;;;13.86;100.00;98840.44;5049313;28;20125;-92
2022/06/14 09:33:09;;;;;;;7.53;1.60;;;;;;;13.80;100.00;98840.59;5060320;28;20089;-92
2022/06/14 09:35:47;;;;;;;7.20;1.77;;;;;;;13.83;100.00;98832.66;5070604;28;20100;-89
2022/06/14 09:38:32;;;;;;;;;;;;;;;14.03;100.00;98832.25;5079407;28;20631;-91
2022/06/14 09:41:24;;;;;;;9.45;1.83;;;;;;;14.30;100.00;98836.00;5057436;28;20002;-93
2022/06/14 09:44:06;;;;;;;6.37;1.80;;;;;;;14.31;100.00;98835.09;5051393;28;20068;-92
2022/06/14 09:46:59;;;;;;;7.95;1.70;;;;;;;14.43;100.00;98833.97;5067811;28;20051;-92
2022/06/14 09:49:38;;;;;;;7.75;1.65;;;;;;;14.48;100.00;98849.59;5093450;28;20036;-90
2022/06/14 09:52:38;;;;;;;8.73;2.00;;;;;;;14.15;100.00;98838.97;5060575;28;20029;-91
2022/06/14 09:55:03;;;;;;;7.53;1.80;;;;;;;13.82;100.00;98830.94;5045329;28;20116;-90
2022/06/14 09:57:45;;;;;;;6.95;1.70;;;;;;;14.04;100.00;98838.34;5046731;28;20111;-89
2022/06/14 10:00:50;;;;;;;7.45;1.90;;;;;;;14.34;100.00;98834.16;5065001;28;20055;-89
2022/06/14 10:03:44;;;;;;;8.00;1.88;;;;;;;14.59;100.00;98830.97;5052504;28;20112;-90
2022/06/14 10:06:32;;;;;;;8.85;1.83;;;;;;;14.73;100.00;98833.28;5042072;28;20529;-89
2022/06/14 10:09:19;;;;;;;6.68;2.00;;;;;;;14.74;100.00;98835.00;5046508;28;20029;-89
2022/06/14 10:11:54;;;;;;;6.95;1.85;;;;;;;16.25;100.00;98828.22;5048785;28;20032;-89
2022/06/14 10:14:28;;;;;;;8.90;1.90;;;;;;;17.14;100.00;98828.88;5044871;28;20761;-90
2022/06/14 10:17:21;;;;;;;10.27;1.90;;;;;;;16.87;100.00;98835.00;5049349;28;20518;-89
2022/06/14 10:19:59;;;;;;;10.75;2.20;;;;;;;17.64;100.00;98831.47;5049010;28;20736;-88
2022/06/14 10:22:57;;;;;;;7.15;1.70;;;;;;;17.81;100.00;98835.25;5047666;28;20072;-90
2022/06/14 10:28:46;;;;;;;7.95;2.05;;;;;;;17.28;100.00;98838.94;5042500;28;20064;-89
2022/06/14 10:31:21;;;;;;;8.27;2.22;;;;;;;17.39;100.00;98837.63;5053964;28;20082;-91
2022/06/14 10:33:46;;;;;;;8.02;1.90;;;;;;;16.98;100.00;98836.44;5051891;28;20094;-92
2022/06/14 10:36:30;;;;;;;9.05;2.03;;;;;;;16.19;100.00;98837.16;5055498;28;20033;-89
2022/06/14 10:39:23;;;;;;;6.78;1.90;;;;;;;15.81;100.00;98830.41;5050095;28;20114;-91
2022/06/14 10:42:13;;;;;;;7.18;1.77;;;;;;;15.38;100.00;98843.00;5027237;28;20218;-91
2022/06/14 10:44:49;;;;;;;7.18;1.90;;;;;;;15.53;100.00;98836.41;5048423;28;20033;-90
2022/06/14 10:47:28;;;;;;;10.20;2.50;;;;;;;15.58;100.00;98829.28;5043889;28;20037;-89
2022/06/14 10:50:24;;;;;;;7.95;2.15;;;;;;;15.41;100.00;98826.28;5043270;28;20576;-89
2022/06/14 10:53:20;;;;;;;7.28;1.85;;;;;;;15.62;100.00;98825.66;5041909;28;20040;-90
2022/06/14 10:56:06;;;;;;;9.10;2.38;;;;;;;17.48;100.00;98814.47;5043104;28;20033;-90
2022/06/14 10:58:58;;;;;;;10.05;2.40;;;;;;;18.64;100.00;98810.91;5043584;28;20052;-91
2022/06/14 11:01:37;;;;;;;6.10;1.70;;;;;;;17.35;99.19;98814.06;5041961;28;20032;-91
2022/06/14 11:04:09;;;;;;;12.52;2.00;;;;;;;16.20;100.00;98814.34;5047053;28;20064;-89
2022/06/14 11:07:10;;;;;;;7.88;2.05;;;;;;;16.86;100.00;98811.34;5042687;28;20194;-92
2022/06/14 11:10:19;;;;;;;8.50;1.80;;;;;;;16.41;100.00;98815.44;5045907;28;20077;-89
2022/06/14 11:13:15;;;;;;;6.90;1.90;;;;;;;15.75;100.00;98810.38;5043668;28;20060;-90
2022/06/14 11:16:04;;;;;;;8.90;1.90;;;;;;;16.00;100.00;98809.69;5046665;28;20036;-92
2022/06/14 11:18:48;;;;;;;7.80;1.80;;;;;;;15.17;100.00;98818.13;5044399;28;20374;-90
2022/06/14 11:21:46;;;;;;;7.57;2.03;;;;;;;15.14;100.00;98811.22;5041719;28;20026;-90
2022/06/14 11:24:34;;;;;;;9.48;1.98;;;;;;;15.56;100.00;98799.56;5021014;28;20037;-90
2022/06/14 11:27:16;;;;;;;5.93;1.80;;;;;;;15.35;100.00;98801.88;5035707;28;20060;-90
2022/06/14 11:30:02;;;;;;;10.40;2.47;;;;;;;15.65;100.00;98803.69;5034279;28;20041;-90
2022/06/14 11:33:08;;;;;;;9.57;2.25;;;;;;;17.58;100.00;98797.44;5018254;28;20124;-91
2022/06/14 11:35:54;;;;;;;8.32;2.03;;;;;;;16.75;100.00;98798.53;5035122;28;20029;-90
2022/06/14 11:38:49;;;;;;;8.48;1.90;;;;;;;16.56;100.00;98787.75;5016959;28;20305;-90
2022/06/14 11:41:19;;;;;;;8.98;2.08;;;;;;;15.82;100.00;98792.69;5020458;28;20049;-91
2022/06/14 11:44:03;;;;;;;8.63;2.13;;;;;;;15.84;100.00;98783.84;5037532;28;20033;-91
2022/06/14 11:46:58;;;;;;;8.00;1.90;;;;;;;15.55;100.00;98779.44;5018494;28;20500;-90
2022/06/14 11:49:41;;;;;;;10.82;2.10;;;;;;;16.17;100.00;98778.47;5034112;28;20054;-90
2022/06/14 11:52:31;;;;;;;9.23;1.98;;;;;;;16.11;100.00;98776.00;5041682;28;20033;-91
2022/06/14 11:55:11;;;;;;;7.57;1.88;;;;;;;16.41;100.00;98777.72;5017667;28;20048;-90
2022/06/14 11:57:52;;;;;;;8.95;1.80;;;;;;;16.69;100.00;98775.91;5033211;28;20061;-90
2022/06/14 12:00:26;;;;;;;6.82;1.88;;;;;;;16.40;100.00;98770.75;5040392;28;20041;-90
2022/06/14 12:03:23;;;;;;;7.78;1.90;;;;;;;16.31;100.00;98769.25;5062710;28;20039;-90
2022/06/14 12:06:08;;;;;;;10.15;1.92;;;;;;;16.68;100.00;98766.25;5044074;28;20087;-90
2022/06/14 12:08:59;;;;;;;9.30;2.15;;;;;;;16.08;100.00;98770.00;5085696;28;20490;-90
2022/06/14 12:11:30;;;;;;;10.73;2.28;;;;;;;16.66;100.00;98765.47;5051949;28;20147;-90
2022/06/14 12:14:17;;;;;;;7.60;1.95;;;;;;;17.26;97.87;98761.66;5049776;28;20143;-90
2022/06/14 12:16:54;;;;;;;7.75;1.75;;;;;;;17.79;100.00;98761.47;5048948;28;20033;-91
2022/06/14 12:19:28;;;;;;;7.70;1.88;;;;;;;18.15;100.00;98760.97;5053246;28;20039;-91
2022/06/14 12:22:34;;;;;;;7.35;1.90;;;;;;;17.72;100.00;98759.97;5084442;28;20187;-90
2022/06/14 12:27:58;;;;;;;7.60;1.83;;;;;;;16.86;96.01;98753.41;5048179;28;20043;-90
2022/06/14 12:30:27;;;;;;;7.28;2.10;;;;;;;16.50;98.45;98749.31;5051350;28;20036;-89
2022/06/14 12:32:56;;;;;;;8.27;2.30;;;;;;;16.71;97.14;98755.66;5041385;28;20101;-90
2022/06/14 12:35:28;;;;;;;7.88;2.08;;;;;;;18.08;100.00;98748.94;5054451;28;20025;-90
2022/06/14 12:38:04;;;;;;;8.75;2.08;;;;;;;17.85;90.71;98745.38;5051068;28;20187;-90
2022/06/14 12:40:32;;;;;;;7.22;1.80;;;;;;;19.21;98.93;98741.59;5050506;28;20053;-90
2022/06/14 12:43:21;;;;;;;7.78;2.30;;;;;;;19.40;88.59;98737.19;5050912;28;20148;-89
2022/06/14 12:45:50;;;;;;;8.23;2.10;;;;;;;18.66;87.68;98732.47;5042687;28;20021;-90
2022/06/14 12:48:38;;;;;;;6.45;1.85;;;;;;;18.36;90.62;98730.19;5056200;28;20065;-89
2022/06/14 12:51:31;;;;;;;8.88;2.13;;;;;;;19.56;100.00;98720.63;5071384;28;20042;-90
2022/06/14 12:54:18;;;;;;;7.15;2.05;;;;;;;19.45;87.81;98713.19;5068063;28;20047;-89
2022/06/14 12:57:03;;;;;;;6.90;2.05;;;;;;;19.41;82.81;98719.53;5048159;28;20028;-91
2022/06/14 12:59:46;;;;;;;8.18;2.20;;;;;;;19.81;80.01;98722.16;5058811;28;20037;-89